Fjallbacka Anra Airport


Codes: ESTF/
Name: Fjallbacka Anra Airport
City: Fjallbacka
Country: Sweden
Elevation: 10 ft.

Photos at Fjallbacka Anra Airport


   Photos courtesy of SpottingLog. You can add your own sightings and photos by signing up for a free trial today.



No photos found.

Weather at Fjallbacka Anra Airport


Time (UTC)DescriptionTempratureWindCloud coverageVisibilityPressureHumidity
17-Jun-2024 06:00Overcast Clouds14°C11 mph, 93%10000m1009hPa92%
17-Jun-2024 09:00Light Rain14°C11 mph, S83%10000m1009hPa90%
17-Jun-2024 12:00Light Rain16°C9 mph, SW85%10000m1010hPa76%
17-Jun-2024 15:00Overcast Clouds16°C7 mph, SW100%10000m1010hPa68%
17-Jun-2024 18:00Broken Clouds15°C4 mph, SW77%10000m1010hPa75%
17-Jun-2024 21:00Broken Clouds11°C4 mph, SE56%10000m1010hPa94%
18-Jun-2024 00:00Light Rain11°C7 mph, SE61%10000m1010hPa96%
18-Jun-2024 03:00Light Rain12°C7 mph, SW45%10000m1009hPa94%
18-Jun-2024 06:00Light Rain13°C11 mph, SW59%10000m1010hPa86%
18-Jun-2024 09:00Light Rain13°C16 mph, SW55%9478m1010hPa90%
18-Jun-2024 12:00Light Rain14°C18 mph, SW51%10000m1010hPa83%
18-Jun-2024 15:00Light Rain14°C18 mph, SW73%10000m1008hPa89%
18-Jun-2024 18:00Light Rain14°C18 mph, SW68%10000m1007hPa86%
18-Jun-2024 21:00Light Rain14°C13 mph, SW9%10000m1006hPa79%
19-Jun-2024 00:00Clear Sky13°C13 mph, SW5%10000m1005hPa80%
19-Jun-2024 03:00Clear Sky12°C9 mph, SW2%10000m1003hPa83%
19-Jun-2024 06:00Light Rain14°C7 mph, W36%10000m1002hPa75%
19-Jun-2024 09:00Light Rain14°C16 mph, NW9%10000m1003hPa80%
19-Jun-2024 12:00Light Rain14°C22 mph, NW30%10000m1004hPa71%
19-Jun-2024 15:00Broken Clouds11°C20 mph, N66%10000m1006hPa76%
19-Jun-2024 18:00Broken Clouds12°C11 mph, N58%10000m1009hPa72%
19-Jun-2024 21:00Clear Sky9°C4 mph, N7%10000m1011hPa84%
20-Jun-2024 00:00Clear Sky10°C7 mph, SW6%10000m1011hPa85%
20-Jun-2024 03:00Clear Sky11°C7 mph, W1%10000m1011hPa76%
20-Jun-2024 06:00Clear Sky14°C9 mph, W7%10000m1012hPa62%
20-Jun-2024 09:00Overcast Clouds15°C9 mph, W89%10000m1013hPa51%
20-Jun-2024 12:00Broken Clouds18°C7 mph, W55%10000m1012hPa57%
20-Jun-2024 15:00Clear Sky18°C16 mph, SW0%10000m1012hPa67%
20-Jun-2024 18:00Clear Sky16°C13 mph, SW0%10000m1012hPa73%
20-Jun-2024 21:00Scattered Clouds14°C11 mph, SW45%10000m1013hPa85%
21-Jun-2024 00:00Broken Clouds13°C7 mph, SW61%10000m1013hPa93%
21-Jun-2024 03:00Broken Clouds12°C7 mph, S73%10000m1013hPa95%
21-Jun-2024 06:00Overcast Clouds15°C7 mph, SE86%10000m1013hPa76%
21-Jun-2024 09:00Broken Clouds18°C11 mph, S81%10000m1014hPa63%
21-Jun-2024 12:00Overcast Clouds18°C11 mph, S90%10000m1014hPa56%
21-Jun-2024 15:00Overcast Clouds18°C9 mph, S100%10000m1013hPa61%
21-Jun-2024 18:00Overcast Clouds18°C2 mph, SE96%10000m1011hPa68%
21-Jun-2024 21:00Overcast Clouds15°C4 mph, N100%10000m1010hPa74%
22-Jun-2024 00:00Light Rain14°C4 mph, NE100%10000m1009hPa92%
22-Jun-2024 03:00Light Rain13°C7 mph, E100%10000m1008hPa97%